Portada
METAR-TAF:

METAR-TAF

Aeroports :

Txeliàbinsk, Rússia

latitud: 55-10N, longitud: 061-24E, altitud: 234 m

Observació

L'informe es va fer fa 20 minuts, a les 06:30 UTC
Vent 23 kt del Oest
Temperatura -1°C
Humitat 59%
Pressió 996 hPa
Visibilitat 10 km o més
Escasses núvols a una alçada de 4000 ft
torb baixa de neu

METAR: USCC 050630Z 26012MPS 9999 DRSN FEW040 M01/M08 Q0996 R27/190050 NOSIG RMK QFE727

Hora: 11:50 (06:50 UTC)

Pronòstic

L'informe es va fer fa 1 hora i 52 minuts, a les 04:58 UTC
Pronòstic vàlid del 05 a les 06 UTC al 06 a les 06 UTC
Vent 10 kt del Oest amb ràfegues de 25 kt
Visibilitat: 6000 m
Cel ennuvolat a una alçada de 1600 ft, Cumulonimbus.
xàfecs de neu
Temporalment
l' 05 a les 06 UTC al 06 a les 03 UTC
Vent 14 kt del Oest/Sud-Oest amb ràfegues de 35 kt
Visibilitat: 1200 m
a una alçada de 500 ft
xàfecs de neu, torb alta de neu

TAF: USCC 050458Z 0506/0606 27005G13MPS 6000 -SHSN BKN016CB TEMPO 0506/0603 24007G18MPS 1200 SHSN BLSN VV005

Observacions i pronòstics meteorològics de més de 4000 aeroports (METAR i TAF).

Les estacions disponibles són els punts grocs i vermells al mapa.

Posi el ratolí al punt desitjat per veure el nom de l'estació.

Feu clic per veure les observacions i els pronòstics meteorològics.

Per canviar el mapa: feu clic els botons verds amb una creu de color negre per apropar; al botó verd amb un guió per allunyar la imatge; o en les fletxes verdes per a mapes adjacents.


METAR-TAF: